createdAt,value
2023-03-29T00:00:52.473Z,12.00
2023-03-29T00:03:19.339Z,8.00
2023-03-29T00:05:45.931Z,10.50
2023-03-29T00:08:14.891Z,9.60
2023-03-29T00:10:42.377Z,9.25
2023-03-29T00:13:11.879Z,9.00
2023-03-29T00:15:41.373Z,9.75
2023-03-29T00:18:07.905Z,8.00
2023-03-29T00:20:34.544Z,10.00
2023-03-29T00:23:01.185Z,9.00
2023-03-29T00:25:27.804Z,8.60
2023-03-29T00:27:54.358Z,7.25
2023-03-29T00:30:20.919Z,8.00
2023-03-29T00:32:47.616Z,8.00
2023-03-29T00:35:14.153Z,9.20
2023-03-29T00:37:41.406Z,8.25
2023-03-29T00:40:10.824Z,7.00
2023-03-29T00:42:37.582Z,8.00
2023-03-29T00:45:04.442Z,9.00
2023-03-29T00:47:40.079Z,9.25
2023-03-29T00:50:18.549Z,8.00
2023-03-29T00:52:48.702Z,7.80
2023-03-29T00:55:17.745Z,7.25
2023-03-29T00:57:46.745Z,8.80
2023-03-29T01:00:18.204Z,8.20
2023-03-29T01:02:51.138Z,6.20
2023-03-29T01:05:20.233Z,8.00
2023-03-29T01:07:48.296Z,8.00
2023-03-29T01:10:19.159Z,9.00
2023-03-29T01:12:50.223Z,7.50
2023-03-29T01:15:19.436Z,8.00
2023-03-29T01:17:50.509Z,9.00
2023-03-29T01:20:23.453Z,6.60
2023-03-29T01:23:00.781Z,7.00
2023-03-29T01:25:30.232Z,9.50
2023-03-29T01:28:00.900Z,7.00
2023-03-29T01:30:30.610Z,9.00
2023-03-29T01:33:02.829Z,7.20
2023-03-29T01:35:38.679Z,8.50
2023-03-29T01:38:19.548Z,10.00
2023-03-29T01:40:46.016Z,10.00
2023-03-29T01:43:19.472Z,10.00
2023-03-29T01:45:51.846Z,10.00
2023-03-29T01:48:23.482Z,12.00
2023-03-29T01:50:52.315Z,9.25
2023-03-29T01:53:19.112Z,11.00
2023-03-29T01:55:56.676Z,10.25
2023-03-29T01:58:26.575Z,10.00
2023-03-29T02:00:55.436Z,9.50
2023-03-29T02:03:26.651Z,8.00
2023-03-29T02:05:54.737Z,9.00
2023-03-29T02:08:22.398Z,8.00
2023-03-29T02:10:49.831Z,8.00
2023-03-29T02:13:18.132Z,7.40
2023-03-29T02:15:47.637Z,6.00
2023-03-29T02:18:18.676Z,7.25
2023-03-29T02:20:47.469Z,9.20
2023-03-29T02:23:14.589Z,7.00
2023-03-29T02:25:42.862Z,7.25
2023-03-29T02:28:09.547Z,9.60
2023-03-29T02:30:46.941Z,9.00
2023-03-29T02:33:24.106Z,7.00
2023-03-29T02:36:11.664Z,7.50
2023-03-29T02:38:39.164Z,9.00
2023-03-29T02:41:05.930Z,8.00
2023-03-29T02:43:33.043Z,7.00
2023-03-29T02:45:59.586Z,8.67
2023-03-29T02:48:27.275Z,7.00
2023-03-29T02:50:56.975Z,10.00
2023-03-29T02:53:26.825Z,8.00
2023-03-29T02:55:54.017Z,9.00
2023-03-29T02:58:20.785Z,7.00
2023-03-29T03:00:48.850Z,9.00
2023-03-29T03:03:15.672Z,7.60
2023-03-29T03:05:42.993Z,9.00
2023-03-29T03:08:09.532Z,9.00
2023-03-29T03:10:36.484Z,10.00
2023-03-29T03:13:03.414Z,8.60
2023-03-29T03:15:31.198Z,10.00
2023-03-29T03:17:57.731Z,10.40
2023-03-29T03:20:24.405Z,9.00
2023-03-29T03:22:50.993Z,9.00
2023-03-29T03:25:21.961Z,10.00
2023-03-29T03:27:49.767Z,9.00
2023-03-29T03:30:17.129Z,9.00
2023-03-29T03:32:46.665Z,9.00
2023-03-29T03:35:13.421Z,9.20
2023-03-29T03:37:40.468Z,9.75
2023-03-29T03:40:11.976Z,11.00
2023-03-29T03:42:39.359Z,8.00
2023-03-29T03:45:06.096Z,9.00
2023-03-29T03:47:32.836Z,8.20
2023-03-29T03:49:59.477Z,10.00
2023-03-29T03:52:26.276Z,8.75
2023-03-29T03:54:53.091Z,8.00
2023-03-29T03:57:19.670Z,9.00
2023-03-29T03:59:46.128Z,8.60
2023-03-29T04:02:12.814Z,7.80
2023-03-29T04:04:40.623Z,7.00
2023-03-29T04:07:07.300Z,9.00
2023-03-29T04:09:34.201Z,8.00
2023-03-29T04:12:01.721Z,8.00
2023-03-29T04:14:28.272Z,10.00
2023-03-29T04:16:54.980Z,9.00
2023-03-29T04:19:21.838Z,8.00
2023-03-29T04:21:49.549Z,9.00
2023-03-29T04:24:17.401Z,22.00
2023-03-29T04:26:44.304Z,10.00
2023-03-29T04:29:11.095Z,9.00
2023-03-29T04:31:40.166Z,8.00
2023-03-29T04:34:07.186Z,9.25
2023-03-29T04:36:33.711Z,8.40
2023-03-29T04:39:01.856Z,8.00
2023-03-29T04:41:29.174Z,9.00
2023-03-29T04:43:56.299Z,7.00
2023-03-29T04:46:26.566Z,9.00
2023-03-29T04:48:54.104Z,7.25
2023-03-29T04:51:22.237Z,8.40
2023-03-29T04:53:50.140Z,9.00
2023-03-29T04:56:17.440Z,8.00
2023-03-29T04:58:44.557Z,8.60
2023-03-29T05:01:11.107Z,8.50
2023-03-29T05:03:37.701Z,9.60
2023-03-29T05:06:07.243Z,7.75
2023-03-29T05:08:34.857Z,8.00
2023-03-29T05:11:01.967Z,8.00
2023-03-29T05:13:28.720Z,7.80
2023-03-29T05:15:57.231Z,9.60
2023-03-29T05:18:23.795Z,8.00
2023-03-29T05:20:51.260Z,10.75
2023-03-29T05:23:17.746Z,10.60
2023-03-29T05:25:44.185Z,8.20
2023-03-29T05:28:10.736Z,9.00
2023-03-29T05:30:37.228Z,11.25
2023-03-29T05:33:05.757Z,10.00
2023-03-29T05:35:32.432Z,10.00
2023-03-29T05:38:00.522Z,11.60
2023-03-29T05:40:27.229Z,9.60
2023-03-29T05:42:53.836Z,8.00
2023-03-29T05:45:20.713Z,10.20
2023-03-29T05:47:48.063Z,10.00
2023-03-29T05:50:14.590Z,11.40
2023-03-29T05:52:41.362Z,9.40
2023-03-29T05:55:08.157Z,9.00
2023-03-29T05:57:38.117Z,11.00
2023-03-29T06:00:15.543Z,10.00
2023-03-29T06:02:43.707Z,11.00
2023-03-29T06:05:10.518Z,9.00
2023-03-29T06:07:41.331Z,9.60
2023-03-29T06:10:09.740Z,9.00
2023-03-29T06:12:36.588Z,9.00
2023-03-29T06:15:05.138Z,9.00
2023-03-29T06:17:34.647Z,9.80
2023-03-29T06:20:01.622Z,10.00
2023-03-29T06:22:29.592Z,8.00
2023-03-29T06:24:56.673Z,7.00
2023-03-29T06:27:23.834Z,10.00
2023-03-29T06:29:50.472Z,8.00
2023-03-29T06:32:16.966Z,8.75
2023-03-29T06:34:43.521Z,8.20
2023-03-29T06:37:10.129Z,9.75
2023-03-29T06:39:36.568Z,8.00
2023-03-29T06:42:12.987Z,8.50
2023-03-29T06:44:43.473Z,8.25
2023-03-29T06:47:09.946Z,8.60
2023-03-29T06:49:36.412Z,7.20
2023-03-29T06:52:02.933Z,8.80
2023-03-29T06:54:29.363Z,5.40
2023-03-29T06:56:57.572Z,6.50
2023-03-29T06:59:24.221Z,7.00
2023-03-29T07:01:52.802Z,5.80
2023-03-29T07:04:20.124Z,5.75
2023-03-29T07:06:48.774Z,7.00
2023-03-29T07:09:18.360Z,6.33
2023-03-29T07:11:46.759Z,6.00
2023-03-29T07:14:13.754Z,8.00
2023-03-29T07:16:40.439Z,6.50
2023-03-29T07:19:09.206Z,5.50
2023-03-29T07:21:37.894Z,7.00
2023-03-29T07:24:04.909Z,7.00
2023-03-29T07:26:32.284Z,5.25
2023-03-29T07:28:58.876Z,6.00
2023-03-29T07:31:25.458Z,8.00
2023-03-29T07:33:53.565Z,7.00
2023-03-29T07:36:20.284Z,5.20
2023-03-29T07:38:48.218Z,8.40
2023-03-29T07:41:16.337Z,7.00
2023-03-29T07:43:43.175Z,7.50
2023-03-29T07:46:10.217Z,5.00
2023-03-29T07:48:37.288Z,8.00
2023-03-29T07:51:04.073Z,8.00
2023-03-29T07:53:30.801Z,8.40
2023-03-29T07:55:57.324Z,7.40
2023-03-29T07:58:24.042Z,8.00
2023-03-29T08:00:51.272Z,5.00
2023-03-29T08:03:17.991Z,7.25
2023-03-29T08:05:45.112Z,6.40
2023-03-29T08:08:11.703Z,6.50
2023-03-29T08:10:39.681Z,7.25
2023-03-29T08:13:09.883Z,5.75
2023-03-29T08:15:38.998Z,6.60
2023-03-29T08:18:06.476Z,6.00
2023-03-29T08:20:33.128Z,6.00
2023-03-29T08:22:59.611Z,7.00
2023-03-29T08:25:26.030Z,7.75
2023-03-29T08:27:53.253Z,7.00
2023-03-29T08:30:20.873Z,8.60
2023-03-29T08:32:50.925Z,6.60
2023-03-29T08:35:19.289Z,7.60
2023-03-29T08:37:46.090Z,8.25
2023-03-29T08:40:19.262Z,9.00
2023-03-29T08:42:53.227Z,8.50
2023-03-29T08:45:25.475Z,8.00
2023-03-29T08:47:59.593Z,7.00
2023-03-29T08:50:32.615Z,8.33
2023-03-29T08:53:00.604Z,7.50
2023-03-29T08:55:32.194Z,7.00
2023-03-29T08:58:00.129Z,6.00
2023-03-29T09:00:33.916Z,7.00
2023-03-29T09:03:02.834Z,9.00
2023-03-29T09:05:40.176Z,9.20
2023-03-29T09:08:16.397Z,7.40
2023-03-29T09:10:59.898Z,8.75
2023-03-29T09:13:32.787Z,11.00
2023-03-29T09:16:17.518Z,10.50
2023-03-29T09:18:52.553Z,12.00
2023-03-29T09:21:31.416Z,11.00
2023-03-29T09:24:10.327Z,12.00
2023-03-29T09:26:42.801Z,10.00
2023-03-29T09:29:21.724Z,9.40
2023-03-29T09:31:48.660Z,11.40
2023-03-29T09:34:21.258Z,10.40
2023-03-29T09:37:01.831Z,8.00
2023-03-29T09:39:28.978Z,9.00
2023-03-29T09:42:01.723Z,9.40
2023-03-29T09:44:51.166Z,10.00
2023-03-29T09:47:20.474Z,9.60
2023-03-29T09:49:49.393Z,8.80
2023-03-29T09:52:17.207Z,7.00
2023-03-29T09:54:44.229Z,8.00
2023-03-29T09:57:12.179Z,8.25
2023-03-29T09:59:40.564Z,7.20
2023-03-29T10:02:09.187Z,7.40
2023-03-29T10:04:36.001Z,7.00
2023-03-29T10:07:04.193Z,8.50
2023-03-29T10:09:32.419Z,7.60
2023-03-29T10:12:02.383Z,7.00
2023-03-29T10:14:31.896Z,7.20
2023-03-29T10:16:58.708Z,5.00
2023-03-29T10:19:35.561Z,8.20
2023-03-29T10:22:04.486Z,6.00
2023-03-29T10:24:31.376Z,8.00
2023-03-29T10:27:00.063Z,8.20
2023-03-29T10:29:27.718Z,8.00
2023-03-29T10:31:54.415Z,7.00
2023-03-29T10:34:26.210Z,7.00
2023-03-29T10:36:58.746Z,8.60
2023-03-29T10:39:27.697Z,8.00
2023-03-29T10:41:54.462Z,8.60
2023-03-29T10:44:31.592Z,7.00
2023-03-29T10:47:20.346Z,6.00
2023-03-29T10:49:53.821Z,8.00
2023-03-29T10:52:22.518Z,7.40
2023-03-29T10:54:50.290Z,7.00
2023-03-29T10:57:27.933Z,7.25
2023-03-29T11:00:05.097Z,6.60
2023-03-29T11:02:45.082Z,8.67
2023-03-29T11:05:31.288Z,8.00
2023-03-29T11:08:16.718Z,7.00
2023-03-29T11:11:07.554Z,8.75
2023-03-29T11:13:40.064Z,7.00
2023-03-29T11:16:31.281Z,7.40
2023-03-29T11:18:57.814Z,7.00
2023-03-29T11:21:42.950Z,8.00
2023-03-29T11:24:15.899Z,8.00
2023-03-29T11:26:51.974Z,6.40
2023-03-29T11:29:30.431Z,7.20
2023-03-29T11:31:56.936Z,8.60
2023-03-29T11:34:35.512Z,6.50
2023-03-29T11:37:19.340Z,6.40
2023-03-29T11:39:49.286Z,5.40
2023-03-29T11:42:20.364Z,5.50
2023-03-29T11:44:49.203Z,7.00
2023-03-29T11:47:23.359Z,7.00
2023-03-29T11:49:54.673Z,8.00
2023-03-29T11:52:27.577Z,8.25
2023-03-29T11:54:57.405Z,8.00
2023-03-29T11:57:27.590Z,8.60
2023-03-29T12:00:07.127Z,9.00
2023-03-29T12:02:36.772Z,5.40
2023-03-29T12:05:15.505Z,6.00
2023-03-29T12:07:53.367Z,6.20
2023-03-29T12:10:21.326Z,6.80
2023-03-29T12:12:47.836Z,7.00
2023-03-29T12:15:20.366Z,6.40
2023-03-29T12:17:51.813Z,7.00
2023-03-29T12:20:18.288Z,6.20
2023-03-29T12:22:49.181Z,7.00
2023-03-29T12:25:18.766Z,7.00
2023-03-29T12:27:49.218Z,7.00
2023-03-29T12:30:21.810Z,6.00
2023-03-29T12:33:00.625Z,8.00
2023-03-29T12:35:27.086Z,6.40
2023-03-29T12:37:59.250Z,7.50
2023-03-29T12:40:27.659Z,7.00
2023-03-29T12:42:59.724Z,7.20
2023-03-29T12:45:34.034Z,8.00
2023-03-29T12:48:01.367Z,5.75
2023-03-29T12:50:35.613Z,6.50
2023-03-29T12:53:17.627Z,8.00
2023-03-29T12:55:44.087Z,6.00
2023-03-29T12:58:23.468Z,5.00
2023-03-29T13:00:56.691Z,7.20
2023-03-29T13:03:34.978Z,5.00
2023-03-29T13:06:03.694Z,7.00
2023-03-29T13:08:33.398Z,7.00
2023-03-29T13:10:59.924Z,6.00
2023-03-29T13:13:43.104Z,6.20
2023-03-29T13:16:12.292Z,6.60
2023-03-29T13:18:54.398Z,8.50
2023-03-29T13:21:30.288Z,6.00
2023-03-29T13:23:56.727Z,6.00
2023-03-29T13:26:42.850Z,5.00
2023-03-29T13:29:18.494Z,5.50
2023-03-29T13:31:53.249Z,6.00
2023-03-29T13:34:31.905Z,7.00
2023-03-29T13:36:58.402Z,6.00
2023-03-29T13:39:28.875Z,4.80
2023-03-29T13:42:07.093Z,7.00
2023-03-29T13:44:45.089Z,6.00
2023-03-29T13:47:11.968Z,6.00
2023-03-29T13:49:39.236Z,6.00
2023-03-29T13:52:16.465Z,6.00
2023-03-29T13:54:52.466Z,4.00
2023-03-29T13:57:21.767Z,6.00
2023-03-29T13:59:53.865Z,7.00
2023-03-29T14:02:32.708Z,6.00
2023-03-29T14:05:00.784Z,6.80
2023-03-29T14:07:28.753Z,8.00
2023-03-29T14:09:56.453Z,6.40
2023-03-29T14:12:22.970Z,5.20
2023-03-29T14:14:58.935Z,6.00
2023-03-29T14:17:25.950Z,6.00
2023-03-29T14:19:52.556Z,6.50
2023-03-29T14:22:20.798Z,6.60
2023-03-29T14:24:49.355Z,6.60
2023-03-29T14:27:16.398Z,5.00
2023-03-29T14:29:45.498Z,6.20
2023-03-29T14:32:13.390Z,6.00
2023-03-29T14:34:40.204Z,6.00
2023-03-29T14:37:09.033Z,4.75
2023-03-29T14:39:36.136Z,6.00
2023-03-29T14:42:02.838Z,8.00
2023-03-29T14:44:33.359Z,6.00
2023-03-29T14:47:00.903Z,5.20
2023-03-29T14:49:27.830Z,4.50
2023-03-29T14:51:55.220Z,5.00
2023-03-29T14:54:29.699Z,7.00
2023-03-29T14:56:56.503Z,5.00
2023-03-29T14:59:29.507Z,7.00
2023-03-29T15:01:56.658Z,8.25
2023-03-29T15:04:23.342Z,6.75
2023-03-29T15:06:52.797Z,6.00
2023-03-29T15:09:31.782Z,6.25
2023-03-29T15:11:59.587Z,8.00
2023-03-29T15:14:27.748Z,6.50
2023-03-29T15:16:57.207Z,7.00
2023-03-29T15:19:25.827Z,7.00
2023-03-29T15:21:52.483Z,8.80
2023-03-29T15:24:21.676Z,7.75
2023-03-29T15:26:57.733Z,8.40
2023-03-29T15:29:25.915Z,8.60
2023-03-29T15:31:56.930Z,8.00
2023-03-29T15:34:28.099Z,10.00
2023-03-29T15:36:54.796Z,8.00
2023-03-29T15:39:21.512Z,7.40
2023-03-29T15:41:49.018Z,8.80
2023-03-29T15:44:17.598Z,8.00
2023-03-29T15:46:44.142Z,10.00
2023-03-29T15:49:13.847Z,9.00
2023-03-29T15:51:40.804Z,8.00
2023-03-29T15:54:07.941Z,6.25
2023-03-29T15:56:40.842Z,7.00
2023-03-29T15:59:09.964Z,8.00
2023-03-29T16:01:38.647Z,8.00
2023-03-29T16:04:11.222Z,7.00
2023-03-29T16:06:39.133Z,7.20
2023-03-29T16:09:07.155Z,7.00
2023-03-29T16:11:33.750Z,9.00
2023-03-29T16:14:00.887Z,8.00
2023-03-29T16:16:27.380Z,5.80
2023-03-29T16:18:53.952Z,7.80
2023-03-29T16:21:22.252Z,8.40
2023-03-29T16:23:48.754Z,7.40
2023-03-29T16:26:16.729Z,9.00
2023-03-29T16:28:43.476Z,8.25
2023-03-29T16:31:11.490Z,8.50
2023-03-29T16:33:38.077Z,8.00
2023-03-29T16:36:05.040Z,8.80
2023-03-29T16:38:31.723Z,8.75
2023-03-29T16:40:58.232Z,10.00
2023-03-29T16:43:24.757Z,8.40
2023-03-29T16:45:51.280Z,7.50
2023-03-29T16:48:18.672Z,9.00
2023-03-29T16:50:48.730Z,9.00
2023-03-29T16:53:15.789Z,8.00
2023-03-29T16:55:42.783Z,8.00
2023-03-29T16:58:09.707Z,7.00
2023-03-29T17:00:36.691Z,7.50
2023-03-29T17:03:03.203Z,8.00
2023-03-29T17:05:29.746Z,8.40
2023-03-29T17:07:56.267Z,8.00
2023-03-29T17:10:23.321Z,7.75
2023-03-29T17:12:49.802Z,7.40
2023-03-29T17:15:17.684Z,10.00
2023-03-29T17:17:44.154Z,6.60
2023-03-29T17:20:12.359Z,7.00
2023-03-29T17:22:41.785Z,7.75
2023-03-29T17:25:09.022Z,7.00
2023-03-29T17:27:38.856Z,7.00
2023-03-29T17:30:06.406Z,7.00
2023-03-29T17:32:33.010Z,7.20
2023-03-29T17:34:59.679Z,7.00
2023-03-29T17:37:27.860Z,8.00
2023-03-29T17:39:54.848Z,6.00
2023-03-29T17:42:21.336Z,6.00
2023-03-29T17:44:47.774Z,6.00
2023-03-29T17:47:14.511Z,6.25
2023-03-29T17:49:41.006Z,6.40
2023-03-29T17:52:07.544Z,5.40
2023-03-29T17:54:33.984Z,5.50
2023-03-29T17:57:00.629Z,6.00
2023-03-29T17:59:27.111Z,7.00
2023-03-29T18:01:54.891Z,6.00
2023-03-29T18:04:21.780Z,6.75
2023-03-29T18:06:49.137Z,4.20
2023-03-29T18:09:15.712Z,3.50
2023-03-29T18:11:42.186Z,5.00
2023-03-29T18:14:08.687Z,5.60
2023-03-29T18:16:35.375Z,5.00
2023-03-29T18:19:01.879Z,4.00
2023-03-29T18:21:28.687Z,7.00
2023-03-29T18:23:57.032Z,5.80
2023-03-29T18:26:24.243Z,4.00
2023-03-29T18:28:51.158Z,4.75
2023-03-29T18:31:19.853Z,5.00
2023-03-29T18:33:47.037Z,5.00
2023-03-29T18:36:14.079Z,6.00
2023-03-29T18:38:43.330Z,4.25
2023-03-29T18:41:12.116Z,4.00
2023-03-29T18:43:39.895Z,4.00
2023-03-29T18:46:07.145Z,3.40
2023-03-29T18:48:38.951Z,5.00
2023-03-29T18:51:07.504Z,4.00
2023-03-29T18:53:39.206Z,4.00
2023-03-29T18:56:06.632Z,3.00
2023-03-29T18:58:33.359Z,6.00
2023-03-29T19:01:01.752Z,5.00
2023-03-29T19:03:28.466Z,4.50
2023-03-29T19:05:55.605Z,4.00
2023-03-29T19:08:22.625Z,4.25
2023-03-29T19:10:49.175Z,4.80
2023-03-29T19:13:15.706Z,5.00
2023-03-29T19:15:42.226Z,4.00
2023-03-29T19:18:09.419Z,6.00
2023-03-29T19:20:36.373Z,4.00
2023-03-29T19:23:03.717Z,4.00
2023-03-29T19:25:33.228Z,3.75
2023-03-29T19:27:59.699Z,4.00
2023-03-29T19:30:26.224Z,3.00
2023-03-29T19:32:53.020Z,4.00
2023-03-29T19:35:19.796Z,5.00
2023-03-29T19:37:46.452Z,3.00
2023-03-29T19:40:13.625Z,6.00
2023-03-29T19:42:40.897Z,3.00
2023-03-29T19:45:08.367Z,3.00
2023-03-29T19:47:35.193Z,4.50
2023-03-29T19:50:02.293Z,4.00
2023-03-29T19:52:29.295Z,3.80
2023-03-29T19:55:04.279Z,3.60
2023-03-29T19:57:30.943Z,5.00
2023-03-29T19:59:57.488Z,4.00
2023-03-29T20:02:24.307Z,3.67
2023-03-29T20:04:50.875Z,4.80
2023-03-29T20:07:17.307Z,4.00
2023-03-29T20:09:45.389Z,4.00
2023-03-29T20:12:12.051Z,5.60
2023-03-29T20:14:43.132Z,4.00
2023-03-29T20:17:09.632Z,3.25
2023-03-29T20:19:36.786Z,3.20
2023-03-29T20:22:04.043Z,4.00
2023-03-29T20:24:32.525Z,4.25
2023-03-29T20:26:59.104Z,5.00
2023-03-29T20:29:25.597Z,3.00
2023-03-29T20:31:52.412Z,3.00
2023-03-29T20:34:19.022Z,3.00
2023-03-29T20:36:46.989Z,3.50
2023-03-29T20:39:17.709Z,3.00
2023-03-29T20:41:47.633Z,5.00
2023-03-29T20:44:16.957Z,3.75
2023-03-29T20:46:46.581Z,4.75
2023-03-29T20:49:13.395Z,4.00
2023-03-29T20:51:42.563Z,6.00
2023-03-29T20:54:10.165Z,4.00
2023-03-29T20:56:38.990Z,5.00
2023-03-29T20:59:06.432Z,6.67
2023-03-29T21:01:35.108Z,5.00
2023-03-29T21:04:01.691Z,4.00
2023-03-29T21:06:28.223Z,5.00
2023-03-29T21:08:54.780Z,5.20
2023-03-29T21:11:21.264Z,3.25
2023-03-29T21:13:47.823Z,3.80
2023-03-29T21:16:14.477Z,3.80
2023-03-29T21:18:41.708Z,4.00
2023-03-29T21:21:11.280Z,5.40
2023-03-29T21:23:38.206Z,6.00
2023-03-29T21:26:07.297Z,5.00
2023-03-29T21:28:33.772Z,5.00
2023-03-29T21:31:04.814Z,5.00
2023-03-29T21:33:32.084Z,4.00
2023-03-29T21:35:58.594Z,3.40
2023-03-29T21:38:25.302Z,6.00
2023-03-29T21:40:51.738Z,4.60
2023-03-29T21:43:18.469Z,4.00
2023-03-29T21:45:48.372Z,5.50
2023-03-29T21:48:14.962Z,5.40
2023-03-29T21:50:41.533Z,4.67
2023-03-29T21:53:08.021Z,5.00
2023-03-29T21:55:37.854Z,4.40
2023-03-29T21:58:05.051Z,5.50
2023-03-29T22:00:31.946Z,6.00
2023-03-29T22:02:58.557Z,3.20
2023-03-29T22:05:26.203Z,4.80
2023-03-29T22:07:52.939Z,4.40
2023-03-29T22:10:22.920Z,4.50
2023-03-29T22:12:50.316Z,3.60
2023-03-29T22:15:17.477Z,5.25
2023-03-29T22:17:44.122Z,5.75
2023-03-29T22:20:14.587Z,4.00
2023-03-29T22:22:45.580Z,4.00
2023-03-29T22:25:12.323Z,4.50
2023-03-29T22:27:38.970Z,3.00
2023-03-29T22:30:05.888Z,4.00
2023-03-29T22:32:32.534Z,4.40
2023-03-29T22:34:59.064Z,5.00
2023-03-29T22:37:25.603Z,5.00
2023-03-29T22:39:52.035Z,6.00
2023-03-29T22:42:18.491Z,5.00
2023-03-29T22:44:44.896Z,5.00
2023-03-29T22:47:11.557Z,4.50
2023-03-29T22:49:38.046Z,4.00
2023-03-29T22:52:04.800Z,3.20
2023-03-29T22:54:31.367Z,5.00
2023-03-29T22:56:58.056Z,4.60
2023-03-29T22:59:25.171Z,4.00
2023-03-29T23:01:52.084Z,4.00
2023-03-29T23:04:18.745Z,4.40
2023-03-29T23:06:45.582Z,4.25
2023-03-29T23:09:13.421Z,5.00
2023-03-29T23:11:41.054Z,5.00
2023-03-29T23:14:07.680Z,4.75
2023-03-29T23:16:34.273Z,4.75
2023-03-29T23:19:01.084Z,5.00
2023-03-29T23:21:28.031Z,5.25
2023-03-29T23:23:55.159Z,5.00
2023-03-29T23:26:21.666Z,3.00
2023-03-29T23:28:48.144Z,4.00
2023-03-29T23:31:18.032Z,3.40
2023-03-29T23:33:44.610Z,4.00
2023-03-29T23:36:12.285Z,4.00
2023-03-29T23:38:43.752Z,5.00
2023-03-29T23:41:12.882Z,4.00
2023-03-29T23:43:40.972Z,4.00
2023-03-29T23:46:15.488Z,6.00
2023-03-29T23:48:46.022Z,4.00
2023-03-29T23:51:12.931Z,5.00
2023-03-29T23:53:39.372Z,5.80
2023-03-29T23:56:06.131Z,4.60
2023-03-29T23:58:33.537Z,3.00
